createdAt,value
2022-08-22T00:01:23.895Z,3.30
2022-08-22T00:02:49.712Z,2.90
2022-08-22T00:03:00.472Z,2.20
2022-08-22T00:04:02.286Z,3.27
2022-08-22T00:06:40.024Z,3.30
2022-08-22T00:09:29.232Z,4.13
2022-08-22T00:12:09.660Z,3.63
2022-08-22T00:14:42.980Z,4.30
2022-08-22T00:17:29.074Z,4.00
2022-08-22T00:20:07.343Z,3.70
2022-08-22T00:22:43.648Z,3.73
2022-08-22T00:25:29.538Z,3.57
2022-08-22T00:28:03.863Z,3.03
2022-08-22T00:30:39.227Z,3.57
2022-08-22T00:33:18.437Z,3.40
2022-08-22T00:35:50.800Z,3.57
2022-08-22T00:38:27.017Z,3.40
2022-08-22T00:41:02.399Z,3.20
2022-08-22T00:43:55.211Z,3.10
2022-08-22T00:46:59.644Z,2.73
2022-08-22T00:49:51.050Z,3.13
2022-08-22T00:52:46.472Z,3.17
2022-08-22T00:55:34.772Z,3.07
2022-08-22T00:58:37.247Z,2.80
2022-08-22T01:01:08.266Z,3.10
2022-08-22T01:03:56.028Z,2.87
2022-08-22T01:06:40.955Z,3.50
2022-08-22T01:09:22.471Z,3.30
2022-08-22T01:12:10.886Z,3.60
2022-08-22T01:14:46.189Z,3.17
2022-08-22T01:17:59.564Z,3.50
2022-08-22T01:21:16.531Z,3.77
2022-08-22T01:24:36.254Z,3.47
2022-08-22T01:27:51.328Z,3.67
2022-08-22T01:30:32.275Z,3.60
2022-08-22T01:33:27.495Z,4.07
2022-08-22T01:36:40.700Z,3.20
2022-08-22T01:39:36.738Z,3.50
2022-08-22T01:42:31.235Z,4.40
2022-08-22T01:45:58.579Z,3.80
2022-08-22T01:48:35.657Z,3.77
2022-08-22T01:51:17.048Z,3.40
2022-08-22T01:53:57.426Z,3.30
2022-08-22T01:56:27.728Z,4.27
2022-08-22T01:59:01.701Z,3.83
2022-08-22T02:01:42.124Z,4.03
2022-08-22T02:04:17.608Z,4.17
2022-08-22T02:07:00.104Z,3.87
2022-08-22T02:09:39.491Z,4.17
2022-08-22T02:12:25.114Z,3.63
2022-08-22T02:15:01.445Z,4.00
2022-08-22T02:17:33.737Z,4.53
2022-08-22T02:20:13.243Z,3.70
2022-08-22T02:22:55.040Z,3.90
2022-08-22T02:25:29.332Z,3.77
2022-08-22T02:28:03.443Z,4.43
2022-08-22T02:30:47.111Z,3.53
2022-08-22T02:33:23.933Z,3.60
2022-08-22T02:35:57.296Z,3.87
2022-08-22T02:38:32.623Z,3.93
2022-08-22T02:41:10.720Z,3.77
2022-08-22T02:43:46.363Z,3.83
2022-08-22T02:46:30.753Z,3.47
2022-08-22T02:49:07.596Z,3.57
2022-08-22T02:51:41.911Z,3.90
2022-08-22T02:54:18.789Z,3.73
2022-08-22T02:56:56.662Z,3.60
2022-08-22T02:59:33.297Z,3.63
2022-08-22T03:02:34.947Z,3.50
2022-08-22T03:05:23.127Z,3.30
2022-08-22T03:08:00.672Z,3.10
2022-08-22T03:10:36.517Z,3.67
2022-08-22T03:13:12.506Z,3.60
2022-08-22T03:15:48.574Z,3.00
2022-08-22T03:18:26.640Z,3.80
2022-08-22T03:20:59.154Z,4.30
2022-08-22T03:23:37.331Z,3.20
2022-08-22T03:26:15.506Z,3.50
2022-08-22T03:28:59.072Z,3.30
2022-08-22T03:31:30.916Z,3.60
2022-08-22T03:34:22.557Z,3.47
2022-08-22T03:37:05.330Z,3.00
2022-08-22T03:39:47.459Z,3.40
2022-08-22T03:42:55.850Z,3.40
2022-08-22T03:45:51.499Z,3.67
2022-08-22T03:48:58.391Z,3.50
2022-08-22T03:51:41.123Z,3.27
2022-08-22T03:54:38.988Z,3.47
2022-08-22T03:57:34.787Z,3.70
2022-08-22T04:00:14.948Z,3.70
2022-08-22T04:03:21.198Z,3.57
2022-08-22T04:06:18.956Z,2.60
2022-08-22T04:09:04.860Z,2.80
2022-08-22T04:12:14.215Z,3.37
2022-08-22T04:15:14.253Z,3.30
2022-08-22T04:18:08.910Z,3.10
2022-08-22T04:20:58.588Z,3.33
2022-08-22T04:23:48.548Z,3.70
2022-08-22T04:26:23.132Z,3.93
2022-08-22T04:28:58.417Z,3.47
2022-08-22T04:31:30.447Z,3.10
2022-08-22T04:34:04.819Z,3.67
2022-08-22T04:36:40.863Z,3.10
2022-08-22T04:39:18.678Z,3.53
2022-08-22T04:41:53.284Z,3.20
2022-08-22T04:44:27.184Z,3.70
2022-08-22T04:47:01.104Z,3.53
2022-08-22T04:49:35.577Z,4.27
2022-08-22T04:52:11.980Z,3.70
2022-08-22T04:54:52.881Z,3.80
2022-08-22T04:57:29.094Z,3.90
2022-08-22T05:00:00.987Z,3.50
2022-08-22T05:02:29.486Z,3.53
2022-08-22T05:05:04.114Z,3.10
2022-08-22T05:07:37.047Z,3.27
2022-08-22T05:10:12.358Z,3.33
2022-08-22T05:12:44.484Z,3.97
2022-08-22T05:15:18.965Z,3.60
2022-08-22T05:17:54.522Z,3.40
2022-08-22T05:20:26.841Z,3.27
2022-08-22T05:23:01.286Z,3.10
2022-08-22T05:25:33.645Z,3.63
2022-08-22T05:28:16.744Z,4.00
2022-08-22T05:30:48.583Z,3.90
2022-08-22T05:33:24.699Z,4.07
2022-08-22T05:35:58.855Z,3.97
2022-08-22T05:38:31.740Z,4.33
2022-08-22T05:41:06.732Z,4.47
2022-08-22T05:43:38.345Z,4.93
2022-08-22T05:46:12.299Z,4.53
2022-08-22T05:48:44.568Z,4.47
2022-08-22T05:51:21.464Z,4.20
2022-08-22T05:53:56.494Z,4.60
2022-08-22T05:56:34.123Z,4.20
2022-08-22T05:59:08.550Z,3.57
2022-08-22T06:01:42.323Z,3.77
2022-08-22T06:04:16.846Z,4.70
2022-08-22T06:06:53.358Z,4.43
2022-08-22T06:09:35.323Z,3.70
2022-08-22T06:12:16.848Z,4.60
2022-08-22T06:15:00.943Z,4.37
2022-08-22T06:17:35.587Z,4.27
2022-08-22T06:20:08.005Z,4.23
2022-08-22T06:22:43.129Z,4.43
2022-08-22T06:25:16.175Z,4.40
2022-08-22T06:27:47.308Z,3.90
2022-08-22T06:30:18.340Z,4.10
2022-08-22T06:32:59.747Z,4.43
2022-08-22T06:35:53.664Z,4.43
2022-08-22T06:38:25.962Z,4.07
2022-08-22T06:40:57.995Z,3.93
2022-08-22T06:43:26.581Z,4.30
2022-08-22T06:45:55.654Z,4.17
2022-08-22T06:48:25.381Z,4.73
2022-08-22T06:50:58.757Z,4.40
2022-08-22T06:53:32.927Z,4.77
2022-08-22T06:56:05.578Z,4.83
2022-08-22T06:58:39.300Z,4.77
2022-08-22T07:01:15.851Z,4.80
2022-08-22T07:03:47.689Z,4.17
2022-08-22T07:06:18.192Z,4.80
2022-08-22T07:08:47.486Z,3.97
2022-08-22T07:11:23.625Z,5.10
2022-08-22T07:13:59.507Z,4.93
2022-08-22T07:16:31.710Z,4.57
2022-08-22T07:19:00.628Z,4.87
2022-08-22T07:21:32.577Z,4.87
2022-08-22T07:24:05.134Z,5.13
2022-08-22T07:26:47.775Z,4.97
2022-08-22T07:29:23.112Z,4.50
2022-08-22T07:32:00.117Z,4.93
2022-08-22T07:34:40.308Z,4.80
2022-08-22T07:37:15.803Z,4.50
2022-08-22T07:39:52.058Z,5.10
2022-08-22T07:42:30.157Z,4.43
2022-08-22T07:45:06.408Z,4.40
2022-08-22T07:47:49.776Z,3.77
2022-08-22T07:50:24.289Z,4.70
2022-08-22T07:52:54.339Z,3.87
2022-08-22T07:55:25.161Z,5.17
2022-08-22T07:57:57.821Z,4.50
2022-08-22T08:00:28.961Z,4.53
2022-08-22T08:03:00.318Z,4.57
2022-08-22T08:05:32.891Z,4.20
2022-08-22T08:08:05.763Z,4.47
2022-08-22T08:10:39.414Z,3.87
2022-08-22T08:13:14.737Z,4.30
2022-08-22T08:15:46.392Z,3.60
2022-08-22T08:18:21.907Z,4.80
2022-08-22T08:20:52.825Z,5.17
2022-08-22T08:23:23.646Z,4.60
2022-08-22T08:25:58.628Z,4.33
2022-08-22T08:28:34.167Z,4.10
2022-08-22T08:31:24.857Z,4.03
2022-08-22T08:34:03.220Z,4.23
2022-08-22T08:36:38.815Z,4.40
2022-08-22T08:39:17.576Z,3.97
2022-08-22T08:42:05.635Z,3.80
2022-08-22T08:45:08.820Z,3.75
2022-08-22T08:47:57.631Z,4.22
2022-08-22T08:50:40.131Z,4.93
2022-08-22T08:54:00.652Z,3.85
2022-08-22T08:56:39.044Z,4.60
2022-08-22T08:59:27.008Z,4.50
2022-08-22T09:02:13.744Z,5.03
2022-08-22T09:05:19.987Z,3.97
2022-08-22T09:08:17.133Z,4.40
2022-08-22T09:11:14.438Z,4.80
2022-08-22T09:14:01.768Z,4.00
2022-08-22T09:16:52.538Z,4.32
2022-08-22T09:20:02.956Z,4.30
2022-08-22T09:23:20.084Z,3.80
2022-08-22T09:25:53.011Z,4.20
2022-08-22T09:28:32.319Z,3.30
2022-08-22T09:31:32.997Z,3.55
2022-08-22T09:34:23.741Z,4.35
2022-08-22T09:37:09.026Z,3.45
2022-08-22T09:39:51.964Z,4.07
2022-08-22T09:42:31.203Z,3.08
2022-08-22T09:45:47.141Z,2.78
2022-08-22T09:48:45.140Z,3.63
2022-08-22T09:51:32.562Z,3.47
2022-08-22T09:54:18.813Z,2.65
2022-08-22T09:57:01.200Z,2.97
2022-08-22T09:59:45.643Z,2.58
2022-08-22T10:02:27.235Z,2.92
2022-08-22T10:05:12.325Z,2.25
2022-08-22T10:07:57.035Z,2.85
2022-08-22T10:10:42.218Z,1.95
2022-08-22T10:13:24.756Z,2.28
2022-08-22T10:15:59.971Z,3.05
2022-08-22T10:18:37.241Z,2.78
2022-08-22T10:21:16.986Z,2.20
2022-08-22T10:23:53.743Z,2.47
2022-08-22T10:26:35.255Z,2.20
2022-08-22T10:29:31.666Z,2.30
2022-08-22T10:32:14.421Z,2.92
2022-08-22T10:34:47.437Z,2.22
2022-08-22T10:37:25.280Z,2.20
2022-08-22T10:40:02.590Z,2.67
2022-08-22T10:42:35.772Z,1.65
2022-08-22T10:45:36.802Z,1.85
2022-08-22T10:48:34.511Z,1.92
2022-08-22T10:51:16.717Z,2.58
2022-08-22T10:54:00.060Z,2.03
2022-08-22T10:56:35.966Z,2.13
2022-08-22T10:59:17.372Z,2.10
2022-08-22T11:01:54.166Z,2.13
2022-08-22T11:04:39.162Z,1.80
2022-08-22T11:07:21.520Z,3.03
2022-08-22T11:09:56.991Z,2.42
2022-08-22T11:12:34.865Z,1.80
2022-08-22T11:15:28.313Z,1.83
2022-08-22T11:18:20.767Z,2.28
2022-08-22T11:20:59.385Z,2.40
2022-08-22T11:23:41.678Z,2.75
2022-08-22T11:26:33.788Z,1.55
2022-08-22T11:29:26.333Z,1.83
2022-08-22T11:32:07.628Z,1.83
2022-08-22T11:34:50.163Z,1.60
2022-08-22T11:37:42.266Z,1.55
2022-08-22T11:40:25.894Z,2.90
2022-08-22T11:43:03.151Z,2.92
2022-08-22T11:45:40.842Z,1.58
2022-08-22T11:48:24.466Z,1.83
2022-08-22T11:51:03.891Z,1.60
2022-08-22T11:53:47.406Z,2.15
2022-08-22T11:56:24.589Z,1.40
2022-08-22T11:59:00.081Z,1.58
2022-08-22T12:01:38.399Z,1.92
2022-08-22T12:04:18.315Z,1.77
2022-08-22T12:06:59.812Z,2.00
2022-08-22T12:09:39.479Z,1.33
2022-08-22T12:12:22.784Z,1.63
2022-08-22T12:14:58.816Z,1.77
2022-08-22T12:18:01.664Z,2.25
2022-08-22T12:20:48.715Z,2.08
2022-08-22T12:23:48.729Z,2.10
2022-08-22T12:26:27.574Z,1.75
2022-08-22T12:29:18.063Z,2.00
2022-08-22T12:32:27.795Z,2.00
2022-08-22T12:35:14.117Z,2.22
2022-08-22T12:37:55.734Z,1.73
2022-08-22T12:40:43.621Z,2.88
2022-08-22T12:43:39.946Z,1.55
2022-08-22T12:46:18.100Z,1.88
2022-08-22T12:49:12.663Z,1.48
2022-08-22T12:51:55.796Z,1.67
2022-08-22T12:54:45.172Z,1.40
2022-08-22T12:57:23.326Z,1.65
2022-08-22T12:59:58.184Z,2.35
2022-08-22T13:02:30.526Z,2.35
2022-08-22T13:05:02.697Z,1.83
2022-08-22T13:07:36.266Z,1.63
2022-08-22T13:10:33.462Z,1.75
2022-08-22T13:13:05.376Z,1.42
2022-08-22T13:15:45.943Z,1.85
2022-08-22T13:18:30.577Z,1.58
2022-08-22T13:21:03.464Z,1.70
2022-08-22T13:23:39.564Z,2.08
2022-08-22T13:26:24.603Z,1.85
2022-08-22T13:31:59.063Z,1.27
2022-08-22T13:34:39.998Z,1.55
2022-08-22T13:37:15.188Z,1.50
2022-08-22T13:39:46.918Z,1.58
2022-08-22T13:42:31.122Z,2.00
2022-08-22T13:45:05.750Z,1.35
2022-08-22T13:47:39.243Z,1.58
2022-08-22T13:50:14.994Z,1.55
2022-08-22T13:52:49.385Z,1.70
2022-08-22T13:55:31.734Z,1.95
2022-08-22T13:58:11.334Z,1.23
2022-08-22T14:01:13.811Z,1.15
2022-08-22T14:03:48.549Z,1.77
2022-08-22T14:06:38.178Z,1.50
2022-08-22T14:09:23.620Z,1.52
2022-08-22T14:12:12.091Z,1.70
2022-08-22T14:14:46.017Z,1.50
2022-08-22T14:17:21.397Z,1.83
2022-08-22T14:19:59.111Z,1.65
2022-08-22T14:22:35.454Z,1.20
2022-08-22T14:25:07.856Z,1.35
2022-08-22T14:27:39.600Z,1.92
2022-08-22T14:30:17.010Z,1.30
2022-08-22T14:32:52.269Z,1.38
2022-08-22T14:35:35.315Z,1.85
2022-08-22T14:38:20.891Z,1.50
2022-08-22T14:40:59.174Z,1.55
2022-08-22T14:43:46.815Z,1.73
2022-08-22T14:46:26.452Z,1.52
2022-08-22T14:49:24.921Z,1.33
2022-08-22T14:52:00.404Z,2.08
2022-08-22T14:54:30.396Z,1.50
2022-08-22T14:57:00.882Z,2.00
2022-08-22T14:59:40.239Z,1.48
2022-08-22T15:02:14.808Z,2.00
2022-08-22T15:04:46.680Z,1.77
2022-08-22T15:07:24.984Z,1.42
2022-08-22T15:09:56.712Z,1.52
2022-08-22T15:12:29.029Z,1.27
2022-08-22T15:15:00.171Z,1.85
2022-08-22T15:17:44.468Z,1.65
2022-08-22T15:20:27.782Z,1.65
2022-08-22T15:22:59.741Z,1.55
2022-08-22T15:25:31.459Z,1.67
2022-08-22T15:28:05.720Z,1.50
2022-08-22T15:30:38.812Z,1.30
2022-08-22T15:33:22.516Z,1.40
2022-08-22T15:35:53.399Z,1.70
2022-08-22T15:38:31.458Z,1.85
2022-08-22T15:41:38.120Z,2.08
2022-08-22T15:44:30.735Z,1.55
2022-08-22T15:47:05.488Z,1.60
2022-08-22T15:49:52.000Z,1.80
2022-08-22T15:52:28.419Z,1.35
2022-08-22T15:55:18.607Z,1.35
2022-08-22T15:58:04.525Z,1.48
2022-08-22T16:00:44.808Z,3.20
2022-08-22T16:03:25.697Z,1.77
2022-08-22T16:05:58.955Z,1.67
2022-08-22T16:08:33.146Z,1.48
2022-08-22T16:11:33.818Z,1.70
2022-08-22T16:14:18.952Z,2.13
2022-08-22T16:17:01.832Z,1.95
2022-08-22T16:19:31.994Z,1.92
2022-08-22T16:22:12.393Z,1.65
2022-08-22T16:25:00.186Z,1.95
2022-08-22T16:27:29.815Z,1.80
2022-08-22T16:30:15.118Z,1.75
2022-08-22T16:32:56.223Z,2.22
2022-08-22T16:36:02.307Z,1.63
2022-08-22T16:38:41.700Z,2.13
2022-08-22T16:41:28.230Z,1.45
2022-08-22T16:44:36.463Z,2.33
2022-08-22T16:47:11.797Z,2.08
2022-08-22T16:50:01.173Z,1.92
2022-08-22T16:52:55.824Z,1.80
2022-08-22T16:55:47.391Z,1.90
2022-08-22T16:58:57.067Z,2.25
2022-08-22T17:01:42.993Z,2.33
2022-08-22T17:04:21.522Z,2.00
2022-08-22T17:07:07.001Z,2.10
2022-08-22T17:09:52.147Z,1.77
2022-08-22T17:12:32.086Z,1.80
2022-08-22T17:15:14.995Z,1.60
2022-08-22T17:18:00.700Z,1.90
2022-08-22T17:20:47.280Z,2.25
2022-08-22T17:23:28.322Z,2.35
2022-08-22T17:26:07.507Z,1.75
2022-08-22T17:28:42.394Z,2.08
2022-08-22T17:31:18.152Z,2.00
2022-08-22T17:34:18.179Z,1.80
2022-08-22T17:37:00.515Z,1.70
2022-08-22T17:39:49.253Z,2.15
2022-08-22T17:42:46.503Z,1.73
2022-08-22T17:45:28.056Z,1.40
2022-08-22T17:48:03.569Z,1.80
2022-08-22T17:50:41.160Z,1.90
2022-08-22T17:53:16.483Z,2.23
2022-08-22T17:55:58.999Z,2.07
2022-08-22T17:58:43.305Z,1.50
2022-08-22T18:01:21.066Z,2.20
2022-08-22T18:03:58.932Z,1.60
2022-08-22T18:06:33.919Z,2.27
2022-08-22T18:09:14.124Z,2.20
2022-08-22T18:11:48.228Z,1.83
2022-08-22T18:14:26.552Z,2.17
2022-08-22T18:16:59.174Z,2.63
2022-08-22T18:19:41.288Z,2.17
2022-08-22T18:22:14.147Z,2.70
2022-08-22T18:24:50.857Z,2.03
2022-08-22T18:27:34.368Z,2.40
2022-08-22T18:30:15.955Z,2.20
2022-08-22T18:32:56.002Z,2.20
2022-08-22T18:35:29.884Z,2.10
2022-08-22T18:38:19.326Z,2.43
2022-08-22T18:40:55.346Z,2.60
2022-08-22T18:43:35.864Z,2.20
2022-08-22T18:46:28.703Z,2.50
2022-08-22T18:49:15.268Z,1.93
2022-08-22T18:51:44.539Z,2.00
2022-08-22T18:54:34.780Z,2.23
2022-08-22T18:57:11.440Z,2.13
2022-08-22T19:00:00.257Z,3.60
2022-08-22T19:02:51.114Z,2.20
2022-08-22T19:05:43.455Z,2.20
2022-08-22T19:08:34.156Z,2.80
2022-08-22T19:11:24.324Z,2.57
2022-08-22T19:14:08.804Z,1.80
2022-08-22T19:17:01.914Z,2.53
2022-08-22T19:20:01.995Z,2.50
2022-08-22T19:22:35.825Z,2.87
2022-08-22T19:25:18.627Z,2.60
2022-08-22T19:28:08.642Z,2.33
2022-08-22T19:30:44.877Z,2.00
2022-08-22T19:33:19.279Z,2.70
2022-08-22T19:36:10.813Z,4.30
2022-08-22T19:38:56.742Z,3.57
2022-08-22T19:41:43.842Z,3.23
2022-08-22T19:44:32.456Z,3.27
2022-08-22T19:47:08.040Z,3.07
2022-08-22T19:49:40.420Z,2.60
2022-08-22T19:52:21.718Z,2.23
2022-08-22T19:55:02.233Z,3.50
2022-08-22T19:57:40.961Z,3.13
2022-08-22T20:00:12.706Z,2.13
2022-08-22T20:02:58.983Z,2.47
2022-08-22T20:05:37.211Z,3.47
2022-08-22T20:08:25.689Z,2.50
2022-08-22T20:11:10.875Z,3.00
2022-08-22T20:13:40.047Z,2.50
2022-08-22T20:16:17.083Z,2.77
2022-08-22T20:19:05.981Z,3.70
2022-08-22T20:21:52.921Z,3.20
2022-08-22T20:24:28.023Z,2.50
2022-08-22T20:27:14.006Z,2.80
2022-08-22T20:29:47.992Z,2.80
2022-08-22T20:32:19.176Z,2.90
2022-08-22T20:34:51.552Z,3.33
2022-08-22T20:37:40.337Z,3.47
2022-08-22T20:40:51.807Z,3.60
2022-08-22T20:43:18.525Z,3.73
2022-08-22T20:46:00.183Z,3.30
2022-08-22T20:48:37.264Z,4.10
2022-08-22T20:51:06.290Z,3.90
2022-08-22T20:53:35.382Z,4.40
2022-08-22T20:56:07.022Z,5.73
2022-08-22T20:58:40.147Z,6.07
2022-08-22T21:01:13.315Z,4.60
2022-08-22T21:03:44.566Z,3.90
2022-08-22T21:06:15.723Z,4.17
2022-08-22T21:08:46.499Z,3.90
2022-08-22T21:11:40.223Z,3.93
2022-08-22T21:14:25.321Z,3.50
2022-08-22T21:16:54.609Z,3.43
2022-08-22T21:19:27.826Z,3.30
2022-08-22T21:22:12.201Z,3.10
2022-08-22T21:24:41.165Z,4.17
2022-08-22T21:27:14.071Z,4.10
2022-08-22T21:29:47.911Z,4.20
2022-08-22T21:32:32.603Z,4.00
2022-08-22T21:35:02.817Z,3.70
2022-08-22T21:37:37.232Z,4.03
2022-08-22T21:40:15.142Z,4.33
2022-08-22T21:42:46.884Z,3.10
2022-08-22T21:45:30.992Z,3.73
2022-08-22T21:48:00.088Z,4.00
2022-08-22T21:50:38.200Z,3.23
2022-08-22T21:53:10.121Z,3.57
2022-08-22T21:55:44.233Z,3.93
2022-08-22T21:58:38.644Z,3.80
2022-08-22T22:01:33.936Z,3.50
2022-08-22T22:04:02.404Z,4.50
2022-08-22T22:06:31.220Z,4.57
2022-08-22T22:08:59.652Z,4.33
2022-08-22T22:11:28.199Z,4.27
2022-08-22T22:13:56.623Z,5.07
2022-08-22T22:16:28.156Z,4.37
2022-08-22T22:18:57.917Z,4.30
2022-08-22T22:21:26.375Z,4.07
2022-08-22T22:23:58.511Z,4.30
2022-08-22T22:26:28.603Z,3.67
2022-08-22T22:28:59.100Z,4.03
2022-08-22T22:31:27.695Z,4.47
2022-08-22T22:33:57.526Z,3.87
2022-08-22T22:36:28.471Z,4.10
2022-08-22T22:38:56.967Z,4.10
2022-08-22T22:41:25.832Z,4.33
2022-08-22T22:43:54.860Z,3.93
2022-08-22T22:46:26.644Z,4.20
2022-08-22T22:48:55.290Z,4.23
2022-08-22T22:51:25.627Z,4.50
2022-08-22T22:53:54.102Z,4.40
2022-08-22T22:56:24.169Z,4.20
2022-08-22T22:58:59.229Z,4.37
2022-08-22T23:02:01.324Z,4.20
2022-08-22T23:04:30.396Z,4.40
2022-08-22T23:07:00.243Z,4.93
2022-08-22T23:09:38.560Z,4.83
2022-08-22T23:12:13.983Z,5.20
2022-08-22T23:14:42.748Z,4.93
2022-08-22T23:17:11.645Z,4.40
2022-08-22T23:19:41.489Z,4.50
2022-08-22T23:22:13.420Z,5.00
2022-08-22T23:24:42.630Z,5.17
2022-08-22T23:27:12.058Z,4.57
2022-08-22T23:29:41.868Z,5.00
2022-08-22T23:32:12.256Z,4.73
2022-08-22T23:34:46.007Z,4.37
2022-08-22T23:37:19.180Z,4.90
2022-08-22T23:39:47.952Z,5.37
2022-08-22T23:42:18.005Z,4.83
2022-08-22T23:44:47.188Z,4.70
2022-08-22T23:47:16.384Z,4.87
2022-08-22T23:49:45.258Z,5.47
2022-08-22T23:52:15.776Z,4.80
2022-08-22T23:54:44.253Z,5.40
2022-08-22T23:57:13.275Z,4.97
2022-08-22T23:59:47.963Z,5.53
